Time;durP1;ratioP1;P1;durP2;ratioP2;P2;SDS_P1;SDS_P2;PMS_P1;PMS_P2;Temp;Humidity;BMP_temperature;BMP_pressure;BME280_temperature;BME280_humidity;BME280_pressure;Samples;Min_cycle;Max_cycle;Signal;HPM_P1;HPM_P2
2023/01/24 00:00:25;;;;;;;23.30;15.02;;;4.00;81.50;;;;;;5034904;28;20048;-78
2023/01/24 00:02:51;;;;;;;22.17;15.18;;;4.00;81.50;;;;;;5018162;28;20484;-78
2023/01/24 00:05:16;;;;;;;20.75;15.27;;;4.00;81.40;;;;;;5051298;28;20048;-79
2023/01/24 00:07:42;;;;;;;24.17;15.23;;;4.00;81.40;;;;;;5038621;28;20047;-79
2023/01/24 00:10:08;;;;;;;20.45;14.80;;;4.00;81.40;;;;;;5038421;28;20113;-79
2023/01/24 00:12:34;;;;;;;21.83;14.65;;;4.00;81.40;;;;;;5038384;28;20514;-79
2023/01/24 00:15:00;;;;;;;23.50;15.18;;;4.00;81.40;;;;;;5055400;28;20041;-79
2023/01/24 00:17:25;;;;;;;21.23;14.73;;;4.00;81.30;;;;;;5022271;28;20080;-79
2023/01/24 00:19:51;;;;;;;20.83;14.35;;;4.00;81.30;;;;;;5038855;28;20547;-79
2023/01/24 00:22:17;;;;;;;23.55;16.42;;;4.00;81.30;;;;;;5022231;28;20091;-79
2023/01/24 00:24:42;;;;;;;20.85;14.13;;;4.00;81.20;;;;;;5022395;28;20128;-77
2023/01/24 00:27:08;;;;;;;19.45;14.38;;;4.00;81.20;;;;;;5022459;28;20081;-77
2023/01/24 00:29:34;;;;;;;22.23;15.60;;;4.00;81.30;;;;;;5038639;28;20075;-78
2023/01/24 00:31:59;;;;;;;21.23;15.98;;;4.00;81.30;;;;;;5018404;28;20120;-78
2023/01/24 00:34:25;;;;;;;20.50;15.10;;;4.00;81.30;;;;;;5035301;28;20042;-78
2023/01/24 00:36:50;;;;;;;21.67;15.68;;;4.00;81.30;;;;;;5049266;28;20098;-78
2023/01/24 00:39:16;;;;;;;20.00;15.10;;;4.00;81.30;;;;;;5038729;28;20045;-78
2023/01/24 00:41:42;;;;;;;21.52;15.25;;;4.00;81.20;;;;;;5054895;28;20044;-78
2023/01/24 00:44:07;;;;;;;20.08;14.30;;;4.00;81.10;;;;;;5055104;28;20120;-78
2023/01/24 00:46:33;;;;;;;18.83;13.90;;;4.00;81.00;;;;;;5055174;28;20127;-78
2023/01/24 00:49:00;;;;;;;18.58;13.82;;;4.00;80.90;;;;;;5038537;28;20041;-78
2023/01/24 00:51:25;;;;;;;23.33;15.82;;;4.00;80.90;;;;;;5054752;28;20032;-78
2023/01/24 00:53:51;;;;;;;20.40;14.60;;;3.90;80.80;;;;;;5054803;28;20545;-78
2023/01/24 00:56:17;;;;;;;25.13;16.42;;;4.00;80.90;;;;;;5054568;28;20044;-77
2023/01/24 00:58:42;;;;;;;22.00;15.80;;;3.90;80.90;;;;;;5038163;28;20080;-78
2023/01/24 01:01:08;;;;;;;24.38;16.33;;;3.90;81.30;;;;;;5037997;28;20045;-78
2023/01/24 01:03:34;;;;;;;20.83;14.85;;;3.90;80.90;;;;;;5054663;28;20041;-78
2023/01/24 01:06:06;;;;;;;24.27;15.55;;;3.90;81.00;;;;;;5054628;28;20041;-78
2023/01/24 01:08:32;;;;;;;22.67;15.48;;;3.90;81.00;;;;;;5034313;28;20046;-78
2023/01/24 01:10:58;;;;;;;21.50;15.50;;;3.90;80.90;;;;;;5041436;28;20408;-78
2023/01/24 01:13:25;;;;;;;22.58;15.00;;;4.00;81.00;;;;;;5054343;28;20396;-79
2023/01/24 01:15:51;;;;;;;23.63;16.27;;;4.00;81.00;;;;;;5053741;28;20082;-79
2023/01/24 01:18:16;;;;;;;21.20;14.75;;;3.90;81.00;;;;;;5052692;28;20036;-78
2023/01/24 01:20:49;;;;;;;20.60;14.25;;;3.90;81.00;;;;;;5054047;28;20037;-78
2023/01/24 01:23:15;;;;;;;20.27;15.23;;;3.90;81.10;;;;;;5054168;28;20036;-78
2023/01/24 01:25:40;;;;;;;21.55;15.57;;;3.90;81.10;;;;;;5037520;28;20450;-78
2023/01/24 01:28:06;;;;;;;22.83;16.02;;;3.90;81.00;;;;;;5021140;28;20044;-78
2023/01/24 01:30:32;;;;;;;21.50;15.00;;;3.90;81.00;;;;;;5054261;28;20142;-78
2023/01/24 01:32:57;;;;;;;24.30;14.98;;;3.90;81.00;;;;;;5021374;28;20040;-78
2023/01/24 01:35:23;;;;;;;20.17;14.07;;;3.80;81.00;;;;;;5020903;28;20045;-78
2023/01/24 01:37:49;;;;;;;21.92;15.73;;;4.00;81.20;;;;;;5053969;28;20399;-78
2023/01/24 01:40:16;;;;;;;20.83;14.50;;;4.00;81.30;;;;;;5054217;28;20067;-78
2023/01/24 01:42:53;;;;;;;24.33;16.30;;;3.90;81.20;;;;;;5053650;28;20130;-78
2023/01/24 01:45:40;;;;;;;22.20;15.52;;;3.90;81.30;;;;;;5053973;28;20033;-78
2023/01/24 01:48:17;;;;;;;23.75;15.02;;;3.90;81.20;;;;;;5053952;28;20080;-78
2023/01/24 01:51:04;;;;;;;19.55;14.35;;;3.90;81.10;;;;;;5037267;28;20052;-78
2023/01/24 01:53:35;;;;;;;24.15;16.38;;;3.90;81.00;;;;;;5034153;28;20045;-78
2023/01/24 01:56:10;;;;;;;20.65;15.50;;;3.90;81.10;;;;;;5033777;28;20663;-78
2023/01/24 01:58:37;;;;;;;23.85;14.88;;;3.90;81.20;;;;;;5033492;28;20038;-78
2023/01/24 02:01:03;;;;;;;23.25;15.00;;;3.90;81.20;;;;;;5034896;28;20044;-78
2023/01/24 02:03:38;;;;;;;20.50;14.68;;;3.90;81.20;;;;;;5037094;28;20040;-78
2023/01/24 02:06:27;;;;;;;20.83;14.05;;;3.90;81.20;;;;;;5036625;28;20080;-78
2023/01/24 02:08:54;;;;;;;22.42;14.80;;;3.90;81.20;;;;;;5053295;28;20150;-78
2023/01/24 02:11:40;;;;;;;22.33;15.38;;;3.90;81.20;;;;;;5053158;28;20041;-77
2023/01/24 02:16:53;;;;;;;22.48;15.88;;;4.00;81.30;;;;;;5032922;28;20136;-77
2023/01/24 02:19:39;;;;;;;21.98;15.90;;;4.00;81.20;;;;;;5050742;28;20121;-77
2023/01/24 02:22:16;;;;;;;22.50;15.77;;;3.90;81.10;;;;;;5052964;28;20039;-78
2023/01/24 02:24:53;;;;;;;21.33;13.30;;;3.90;81.10;;;;;;5053159;28;20396;-79
2023/01/24 02:27:18;;;;;;;18.65;13.27;;;3.90;81.10;;;;;;5033458;28;20099;-79
2023/01/24 02:29:44;;;;;;;22.48;15.27;;;4.00;81.20;;;;;;5016412;28;20493;-79
2023/01/24 02:32:10;;;;;;;24.25;16.17;;;3.90;81.20;;;;;;5031457;28;20045;-77
2023/01/24 02:34:35;;;;;;;22.25;15.02;;;4.00;81.20;;;;;;5036053;28;20395;-77
2023/01/24 02:37:06;;;;;;;22.25;14.48;;;3.90;81.10;;;;;;5035553;28;20049;-76
2023/01/24 02:39:50;;;;;;;22.10;15.10;;;4.00;81.10;;;;;;5035450;28;20041;-76
2023/01/24 02:42:22;;;;;;;22.98;16.13;;;4.00;81.10;;;;;;5048379;28;20036;-76
2023/01/24 02:44:57;;;;;;;21.88;14.48;;;4.00;81.10;;;;;;5052121;28;20044;-76
2023/01/24 02:47:32;;;;;;;19.70;13.73;;;4.00;81.10;;;;;;5035668;28;20498;-77
2023/01/24 02:49:58;;;;;;;21.17;14.13;;;3.90;80.90;;;;;;5035354;28;20098;-77
2023/01/24 02:55:08;;;;;;;17.07;12.47;;;4.00;80.60;;;;;;5041837;28;20514;-77
2023/01/24 03:00:18;;;;;;;16.48;12.20;;;3.90;80.00;;;;;;5037945;28;20045;-78
2023/01/24 03:02:44;;;;;;;19.42;13.48;;;3.90;80.00;;;;;;5034810;28;20119;-76
2023/01/24 03:05:10;;;;;;;17.98;12.75;;;4.20;80.10;;;;;;5034974;28;20032;-77
2023/01/24 03:07:44;;;;;;;20.85;14.07;;;3.90;80.00;;;;;;5035662;28;20463;-77
2023/01/24 03:10:17;;;;;;;22.90;14.38;;;3.90;79.90;;;;;;5019931;28;20084;-78
2023/01/24 03:34:48;;;;;;;18.23;13.05;;;3.80;78.50;;;;;;5051833;28;20087;-78
2023/01/24 03:39:53;;;;;;;20.33;13.00;;;3.80;78.40;;;;;;5036431;28;20045;-77
2023/01/24 03:40:04;;;;;;;19.77;13.77;;;3.80;78.30;;;;;;5051205;28;20128;-78
2023/01/24 03:42:29;;;;;;;16.02;12.52;;;3.80;78.10;;;;;;5034409;28;20540;-78
2023/01/24 03:44:55;;;;;;;19.05;12.95;;;3.80;77.90;;;;;;5018569;28;20235;-78
2023/01/24 03:47:21;;;;;;;17.73;12.55;;;3.80;77.90;;;;;;5051568;28;20044;-78
2023/01/24 03:52:30;;;;;;;21.13;14.48;;;3.80;78.10;;;;;;5036855;28;20048;-78
2023/01/24 03:54:57;;;;;;;19.45;13.20;;;3.90;78.30;;;;;;5035040;28;20049;-78
2023/01/24 03:57:25;;;;;;;23.08;14.60;;;3.80;78.40;;;;;;5051283;28;20124;-78
2023/01/24 03:59:50;;;;;;;21.00;14.57;;;3.80;78.40;;;;;;5031405;28;20072;-78
2023/01/24 04:02:16;;;;;;;19.70;13.70;;;3.80;78.40;;;;;;5047574;28;20072;-78
2023/01/24 04:07:27;;;;;;;21.27;14.20;;;3.80;78.10;;;;;;5051339;28;20055;-77
2023/01/24 04:09:53;;;;;;;20.45;14.60;;;3.80;78.10;;;;;;5014643;28;20489;-78
2023/01/24 04:12:19;;;;;;;22.30;14.35;;;3.80;78.20;;;;;;5048847;28;20049;-78
2023/01/24 04:14:44;;;;;;;19.17;14.45;;;3.80;78.00;;;;;;5051209;28;20045;-78
2023/01/24 04:17:10;;;;;;;21.35;14.65;;;4.10;78.20;;;;;;5034406;28;20094;-78
2023/01/24 04:19:36;;;;;;;21.85;14.32;;;3.80;78.00;;;;;;5051355;28;20041;-78
2023/01/24 04:22:01;;;;;;;21.02;14.10;;;3.70;77.90;;;;;;5018370;28;20506;-77
2023/01/24 04:24:27;;;;;;;19.50;13.90;;;3.70;77.80;;;;;;5034258;28;20108;-78
2023/01/24 04:26:53;;;;;;;20.92;14.38;;;3.70;77.50;;;;;;5051466;28;20128;-78
2023/01/24 04:29:18;;;;;;;19.98;14.15;;;3.70;77.30;;;;;;5001813;28;20542;-78
2023/01/24 04:31:44;;;;;;;22.25;14.02;;;4.00;77.50;;;;;;5034551;28;20063;-78
2023/01/24 04:34:10;;;;;;;22.40;14.93;;;3.70;77.40;;;;;;5034416;28;20059;-78
2023/01/24 04:36:35;;;;;;;19.63;14.20;;;3.70;77.40;;;;;;5001728;28;20124;-78
2023/01/24 04:39:01;;;;;;;21.83;14.60;;;3.70;77.30;;;;;;5050708;28;20037;-78
2023/01/24 04:41:27;;;;;;;20.02;14.45;;;3.70;77.40;;;;;;5050570;28;20037;-78
2023/01/24 04:43:52;;;;;;;19.52;13.82;;;3.70;77.50;;;;;;5034642;28;20392;-77
2023/01/24 04:46:18;;;;;;;22.33;14.60;;;3.70;77.50;;;;;;5050775;28;20096;-78
2023/01/24 04:48:44;;;;;;;20.75;14.73;;;3.60;77.60;;;;;;5018004;28;20041;-78
2023/01/24 04:51:09;;;;;;;23.42;15.27;;;3.60;77.70;;;;;;5050331;28;20041;-78
2023/01/24 04:53:38;;;;;;;21.80;15.38;;;3.60;77.90;;;;;;5037528;28;20104;-78
2023/01/24 04:56:05;;;;;;;24.10;15.95;;;3.60;78.00;;;;;;5054724;28;20430;-78
2023/01/24 04:58:32;;;;;;;19.73;13.70;;;3.70;78.20;;;;;;5037933;28;20128;-78
2023/01/24 05:00:58;;;;;;;19.55;14.02;;;3.60;78.10;;;;;;5053868;28;20073;-78
2023/01/24 05:03:24;;;;;;;21.42;14.25;;;3.60;78.10;;;;;;5037785;28;20041;-78
2023/01/24 05:05:51;;;;;;;19.63;13.25;;;3.60;78.10;;;;;;5017889;28;20037;-78
2023/01/24 05:08:17;;;;;;;16.80;12.07;;;3.80;78.20;;;;;;5035750;28;20049;-78
2023/01/24 05:10:42;;;;;;;21.13;13.35;;;3.60;78.00;;;;;;5054068;28;20068;-78
2023/01/24 05:13:08;;;;;;;22.55;13.20;;;3.60;77.80;;;;;;5054218;28;20067;-78
2023/01/24 05:15:34;;;;;;;16.75;11.73;;;3.60;77.70;;;;;;5037474;28;20123;-78
2023/01/24 05:18:00;;;;;;;18.30;11.52;;;3.60;78.10;;;;;;5054052;28;20045;-78
2023/01/24 05:20:25;;;;;;;21.45;13.10;;;3.80;77.90;;;;;;5054011;28;20047;-78
2023/01/24 05:22:51;;;;;;;16.85;11.98;;;3.70;77.80;;;;;;5066880;28;20070;-78
2023/01/24 05:25:17;;;;;;;22.70;14.20;;;3.60;78.00;;;;;;5056621;28;20069;-78
2023/01/24 05:27:43;;;;;;;17.73;13.38;;;3.60;77.70;;;;;;5037554;28;20128;-77
2023/01/24 05:30:10;;;;;;;18.40;12.35;;;3.60;77.80;;;;;;5037419;28;20083;-78
2023/01/24 05:32:36;;;;;;;19.95;13.05;;;3.60;77.90;;;;;;5037334;28;20037;-78
2023/01/24 05:35:02;;;;;;;18.35;13.10;;;3.60;77.90;;;;;;5053581;28;20550;-78
2023/01/24 05:37:28;;;;;;;18.77;13.00;;;3.60;78.10;;;;;;5053709;28;20669;-78
2023/01/24 05:39:54;;;;;;;19.33;13.65;;;3.60;78.10;;;;;;5037356;28;20037;-78
2023/01/24 05:42:19;;;;;;;16.17;11.27;;;3.60;78.10;;;;;;5036781;28;20370;-78
2023/01/24 05:44:45;;;;;;;15.80;11.20;;;3.60;78.00;;;;;;5020696;28;20041;-78
2023/01/24 05:47:11;;;;;;;17.02;11.55;;;3.70;77.90;;;;;;5053558;28;20083;-78
2023/01/24 05:49:36;;;;;;;18.00;12.25;;;3.60;77.80;;;;;;5004209;28;20075;-78
2023/01/24 05:52:02;;;;;;;17.95;11.85;;;3.60;77.70;;;;;;5053573;28;20033;-76
2023/01/24 05:54:28;;;;;;;16.52;11.10;;;3.60;77.80;;;;;;5053619;28;20044;-77
2023/01/24 05:56:54;;;;;;;15.93;11.38;;;3.60;77.80;;;;;;5053530;28;20140;-77
2023/01/24 05:59:19;;;;;;;15.85;10.93;;;3.50;77.70;;;;;;5036291;28;20052;-78
2023/01/24 06:01:45;;;;;;;15.80;10.65;;;3.70;77.90;;;;;;5036561;28;20052;-77
2023/01/24 06:04:11;;;;;;;16.50;11.15;;;3.60;77.90;;;;;;5016097;28;20632;-78
2023/01/24 06:06:37;;;;;;;15.30;10.07;;;3.60;77.80;;;;;;5033440;28;20103;-78
2023/01/24 06:09:03;;;;;;;18.52;10.50;;;3.50;77.60;;;;;;5043464;28;20036;-78
2023/01/24 06:11:29;;;;;;;14.80;10.75;;;3.50;77.70;;;;;;5053104;28;20071;-78
2023/01/24 06:13:55;;;;;;;16.77;11.05;;;3.50;77.70;;;;;;5052692;28;20344;-78
2023/01/24 06:16:23;;;;;;;12.63;9.60;;;3.50;77.70;;;;;;5053032;28;20041;-78
2023/01/24 06:18:51;;;;;;;15.35;10.25;;;3.50;77.70;;;;;;5036139;28;20049;-78
2023/01/24 06:21:22;;;;;;;15.00;10.02;;;3.50;77.80;;;;;;5036123;28;20040;-78
2023/01/24 06:23:48;;;;;;;19.92;11.95;;;3.50;77.80;;;;;;5053222;28;20471;-78
2023/01/24 06:26:14;;;;;;;15.30;10.50;;;3.50;77.70;;;;;;5036509;28;20068;-77
2023/01/24 06:28:40;;;;;;;17.52;10.68;;;3.50;77.60;;;;;;5013523;28;20489;-77
2023/01/24 06:31:36;;;;;;;14.75;10.20;;;3.50;77.40;;;;;;5032943;28;20038;-77
2023/01/24 06:34:26;;;;;;;15.00;9.60;;;3.50;77.20;;;;;;5050938;28;20044;-77
2023/01/24 06:37:17;;;;;;;15.43;9.95;;;3.40;77.30;;;;;;5035773;28;20049;-77
2023/01/24 06:39:51;;;;;;;14.52;10.05;;;3.40;77.30;;;;;;5052663;28;20170;-77
2023/01/24 06:42:18;;;;;;;14.85;10.60;;;3.40;77.30;;;;;;5036041;28;20083;-77
2023/01/24 06:44:44;;;;;;;15.32;10.27;;;3.40;77.40;;;;;;5052243;28;20116;-77
2023/01/24 06:47:11;;;;;;;16.52;10.55;;;3.40;77.40;;;;;;5035698;28;20167;-78
2023/01/24 06:49:38;;;;;;;13.98;9.40;;;3.50;77.40;;;;;;5052002;28;20049;-78
2023/01/24 06:52:04;;;;;;;12.75;8.52;;;3.40;77.40;;;;;;5051761;28;20105;-78
2023/01/24 06:54:29;;;;;;;13.65;9.07;;;3.40;77.30;;;;;;5052153;28;20127;-77
2023/01/24 06:56:55;;;;;;;15.20;9.90;;;3.30;77.20;;;;;;5050378;28;20103;-78
2023/01/24 06:59:22;;;;;;;13.55;9.57;;;3.30;77.20;;;;;;5034979;28;20033;-78
2023/01/24 07:01:51;;;;;;;14.68;9.93;;;3.30;77.30;;;;;;5019217;28;20354;-78
2023/01/24 07:04:17;;;;;;;18.33;10.27;;;3.30;77.40;;;;;;5051820;28;20044;-78
2023/01/24 07:06:43;;;;;;;12.23;8.43;;;3.30;77.50;;;;;;5035024;28;20037;-77
2023/01/24 07:09:09;;;;;;;15.38;9.85;;;3.30;77.50;;;;;;5034829;28;20056;-78
2023/01/24 07:11:35;;;;;;;12.10;8.77;;;3.30;77.40;;;;;;5068425;28;20045;-78
2023/01/24 07:14:01;;;;;;;14.15;9.90;;;3.30;77.40;;;;;;5034328;28;20037;-77
2023/01/24 07:16:27;;;;;;;15.77;9.43;;;3.30;77.40;;;;;;5031188;28;20044;-78
2023/01/24 07:18:53;;;;;;;14.65;9.52;;;3.30;77.50;;;;;;5016379;28;20443;-78
2023/01/24 07:21:19;;;;;;;16.30;10.25;;;3.30;77.50;;;;;;5015635;28;20069;-78
2023/01/24 07:23:47;;;;;;;15.40;10.40;;;3.30;77.60;;;;;;5031890;28;20471;-78
2023/01/24 07:26:14;;;;;;;15.18;9.98;;;3.30;77.50;;;;;;5044754;28;20084;-78
2023/01/24 07:28:41;;;;;;;13.57;9.47;;;3.30;77.60;;;;;;5054076;28;20052;-78
2023/01/24 07:31:07;;;;;;;14.63;10.15;;;3.30;77.60;;;;;;5032094;28;20460;-78
2023/01/24 07:33:33;;;;;;;15.63;9.75;;;3.30;77.80;;;;;;5031768;28;20124;-78
2023/01/24 07:35:59;;;;;;;14.05;10.43;;;3.20;77.80;;;;;;5031706;28;20041;-78
2023/01/24 07:38:25;;;;;;;14.07;9.48;;;3.30;77.70;;;;;;5032032;28;20041;-78
2023/01/24 07:40:50;;;;;;;14.88;10.05;;;3.30;77.70;;;;;;5033627;28;20042;-78
2023/01/24 07:43:18;;;;;;;16.50;10.10;;;3.30;77.60;;;;;;5051155;28;20432;-78
2023/01/24 07:45:47;;;;;;;15.35;9.02;;;3.30;77.60;;;;;;5019124;28;20426;-78
2023/01/24 07:48:13;;;;;;;12.85;8.95;;;3.30;77.60;;;;;;5034875;28;20496;-78
2023/01/24 07:50:38;;;;;;;14.32;9.93;;;3.30;77.60;;;;;;5018425;28;20052;-78
2023/01/24 07:53:05;;;;;;;18.65;11.40;;;3.20;77.50;;;;;;5051442;28;20041;-78
2023/01/24 07:55:30;;;;;;;14.05;9.77;;;3.30;77.60;;;;;;5034859;28;20044;-78
2023/01/24 07:58:01;;;;;;;13.32;9.45;;;3.30;77.70;;;;;;5018301;28;20094;-78
2023/01/24 08:00:27;;;;;;;13.75;9.10;;;3.30;77.80;;;;;;5034736;28;20051;-78
2023/01/24 08:02:53;;;;;;;13.73;9.68;;;3.30;77.90;;;;;;5051131;28;20041;-78
2023/01/24 08:05:18;;;;;;;15.02;10.10;;;3.30;77.90;;;;;;5031405;28;20045;-78
2023/01/24 08:07:44;;;;;;;15.07;10.25;;;3.30;78.00;;;;;;5016229;28;20052;-78
2023/01/24 08:10:10;;;;;;;14.35;9.98;;;3.30;78.10;;;;;;5034564;28;20488;-78
2023/01/24 08:12:36;;;;;;;15.82;11.30;;;3.30;78.10;;;;;;5034448;28;20037;-78
2023/01/24 08:15:02;;;;;;;15.15;10.02;;;3.30;78.20;;;;;;5034746;28;20492;-78
2023/01/24 08:17:28;;;;;;;16.02;10.98;;;3.30;78.20;;;;;;5018144;28;20049;-78
2023/01/24 08:19:54;;;;;;;15.10;10.43;;;3.30;78.30;;;;;;5034459;28;20446;-78
2023/01/24 08:22:19;;;;;;;14.00;10.02;;;3.30;78.10;;;;;;5015086;28;20041;-78
2023/01/24 08:24:45;;;;;;;15.20;9.90;;;3.30;77.90;;;;;;5031453;28;20041;-78
2023/01/24 08:27:11;;;;;;;14.30;10.32;;;3.40;77.90;;;;;;5032420;28;20404;-78
2023/01/24 08:29:36;;;;;;;15.52;10.27;;;3.30;77.70;;;;;;5018427;28;20091;-78
2023/01/24 08:32:02;;;;;;;16.00;10.68;;;3.30;77.70;;;;;;5018466;28;20048;-78
2023/01/24 08:34:28;;;;;;;17.45;11.60;;;3.30;77.70;;;;;;5040670;28;20033;-78
2023/01/24 08:36:53;;;;;;;15.05;10.10;;;3.20;77.60;;;;;;5038083;28;20037;-78
2023/01/24 08:39:19;;;;;;;15.77;11.05;;;3.30;77.70;;;;;;5005415;28;20392;-78
2023/01/24 08:41:46;;;;;;;16.65;11.27;;;3.20;77.80;;;;;;5038262;28;20116;-78
2023/01/24 08:44:15;;;;;;;15.57;10.40;;;3.20;77.90;;;;;;5005633;28;20040;-78
2023/01/24 08:46:41;;;;;;;14.48;10.02;;;3.20;77.90;;;;;;5038412;28;20048;-78
2023/01/24 08:49:09;;;;;;;15.40;10.73;;;3.20;77.90;;;;;;5054926;28;20373;-80
2023/01/24 08:51:35;;;;;;;16.33;11.20;;;3.40;77.90;;;;;;5018540;28;20037;-79
2023/01/24 08:54:00;;;;;;;15.27;10.57;;;3.20;77.80;;;;;;5018395;28;20392;-77
2023/01/24 08:56:26;;;;;;;16.05;10.02;;;3.20;77.70;;;;;;5018376;28;20382;-78
2023/01/24 08:58:52;;;;;;;16.48;10.73;;;3.20;77.70;;;;;;5051142;28;20042;-79
2023/01/24 09:01:18;;;;;;;16.67;10.00;;;3.20;77.60;;;;;;5051105;28;20037;-88
2023/01/24 09:03:43;;;;;;;17.27;10.10;;;3.20;77.60;;;;;;5034832;28;20080;-78
2023/01/24 09:06:09;;;;;;;15.93;10.80;;;3.30;77.80;;;;;;5017948;28;20037;-78
2023/01/24 09:08:35;;;;;;;15.45;10.75;;;3.20;77.80;;;;;;5018356;28;20103;-78
2023/01/24 09:11:01;;;;;;;14.93;9.68;;;3.20;77.90;;;;;;5034161;28;20516;-79
2023/01/24 09:13:27;;;;;;;15.88;10.23;;;3.30;78.00;;;;;;5017724;28;20128;-79
2023/01/24 09:15:53;;;;;;;15.77;10.77;;;3.40;78.10;;;;;;5042291;28;20124;-79
2023/01/24 09:18:19;;;;;;;18.65;11.30;;;3.20;78.00;;;;;;5054070;28;20472;-79
2023/01/24 09:20:45;;;;;;;15.25;10.52;;;3.20;78.00;;;;;;5021318;28;20062;-79
2023/01/24 09:23:14;;;;;;;19.55;13.18;;;3.20;78.00;;;;;;5037469;28;20048;-79
2023/01/24 09:25:40;;;;;;;16.00;10.60;;;3.30;78.10;;;;;;5037492;28;20040;-79
2023/01/24 09:28:06;;;;;;;28.52;18.95;;;3.20;78.10;;;;;;5054021;28;20049;-79
2023/01/24 09:30:33;;;;;;;15.77;11.02;;;3.20;78.00;;;;;;5017834;28;20087;-78
2023/01/24 09:32:58;;;;;;;19.25;13.45;;;3.20;77.90;;;;;;5034396;28;20080;-78
2023/01/24 09:35:24;;;;;;;14.90;10.55;;;3.20;78.00;;;;;;5033969;28;20457;-79
2023/01/24 09:37:51;;;;;;;19.92;11.32;;;3.20;77.90;;;;;;5033567;28;20046;-78
2023/01/24 09:40:45;;;;;;;15.18;10.05;;;3.20;77.80;;;;;;5033491;28;20059;-78
2023/01/24 09:43:23;;;;;;;14.30;10.23;;;3.20;77.70;;;;;;5051566;28;20045;-78
2023/01/24 09:46:04;;;;;;;16.25;10.57;;;3.20;77.80;;;;;;5053670;28;20083;-79
2023/01/24 09:48:34;;;;;;;16.27;11.25;;;3.20;77.90;;;;;;5037026;28;20041;-79
2023/01/24 09:51:11;;;;;;;14.23;9.80;;;3.20;78.00;;;;;;5037744;28;20052;-78
2023/01/24 09:53:43;;;;;;;15.63;10.40;;;3.30;78.10;;;;;;5070483;28;20047;-79
2023/01/24 09:56:30;;;;;;;14.10;9.85;;;3.20;78.20;;;;;;5053572;28;20537;-78
2023/01/24 09:59:17;;;;;;;14.27;10.43;;;3.30;78.30;;;;;;5069921;28;20048;-79
2023/01/24 10:01:43;;;;;;;15.13;10.13;;;3.20;78.20;;;;;;5036564;28;20077;-79
2023/01/24 10:04:21;;;;;;;14.52;10.38;;;3.30;78.20;;;;;;5052985;28;20068;-79
2023/01/24 10:07:15;;;;;;;14.05;10.38;;;3.30;78.10;;;;;;5053172;28;20044;-79
2023/01/24 10:09:50;;;;;;;16.65;10.57;;;3.30;77.90;;;;;;5038285;28;20562;-79
2023/01/24 10:12:30;;;;;;;;;;;3.30;77.90;;;;;;5036888;28;20051;-79
2023/01/24 10:15:20;;;;;;;16.05;9.95;;;3.20;77.60;;;;;;5036552;28;19978;-78
2023/01/24 10:17:51;;;;;;;14.23;9.90;;;3.20;77.90;;;;;;5036571;28;20111;-79
2023/01/24 10:20:44;;;;;;;16.95;10.15;;;3.20;77.80;;;;;;5053462;28;20400;-79
2023/01/24 10:23:10;;;;;;;16.02;10.95;;;3.20;77.80;;;;;;5053212;28;20043;-79
2023/01/24 10:25:52;;;;;;;14.70;9.57;;;3.20;77.60;;;;;;5036277;28;20404;-79
2023/01/24 10:28:26;;;;;;;14.68;10.57;;;3.20;77.60;;;;;;5036232;28;20045;-79
2023/01/24 10:30:57;;;;;;;13.90;10.10;;;3.30;77.70;;;;;;5053148;28;20071;-79
2023/01/24 10:33:29;;;;;;;19.65;10.60;;;3.30;77.80;;;;;;5036220;28;20051;-79
2023/01/24 10:36:05;;;;;;;31.75;11.70;;;3.20;77.70;;;;;;5052722;28;20133;-79
2023/01/24 10:38:32;;;;;;;21.63;11.25;;;3.20;77.80;;;;;;5016187;28;20081;-79
2023/01/24 10:41:12;;;;;;;15.07;10.50;;;3.20;77.90;;;;;;5016209;28;20095;-79
2023/01/24 10:43:39;;;;;;;15.65;10.98;;;3.60;77.90;;;;;;5032524;28;20125;-79
2023/01/24 10:46:40;;;;;;;18.20;11.27;;;3.30;77.70;;;;;;5032718;28;20041;-79
2023/01/24 10:49:17;;;;;;;14.00;10.02;;;3.30;77.50;;;;;;5046035;28;20555;-79
2023/01/24 10:51:42;;;;;;;15.43;9.63;;;3.20;77.40;;;;;;5049641;28;20056;-79
2023/01/24 10:54:20;;;;;;;15.57;10.55;;;3.30;77.40;;;;;;5052372;28;20041;-78
2023/01/24 10:56:46;;;;;;;13.75;9.93;;;3.30;77.20;;;;;;5052609;28;20496;-78
2023/01/24 10:59:13;;;;;;;15.52;10.88;;;3.20;77.20;;;;;;5052148;28;20503;-79
2023/01/24 11:01:47;;;;;;;15.63;11.02;;;3.40;77.40;;;;;;5035874;28;20195;-78
2023/01/24 11:04:25;;;;;;;18.73;11.57;;;3.20;77.30;;;;;;5051966;28;20587;-78
2023/01/24 11:06:51;;;;;;;15.88;11.23;;;3.20;77.50;;;;;;5052063;28;20098;-78
2023/01/24 11:09:23;;;;;;;13.88;10.60;;;3.30;77.70;;;;;;5035489;28;20381;-78
2023/01/24 11:11:52;;;;;;;14.50;10.43;;;3.30;77.60;;;;;;5035593;28;20056;-79
2023/01/24 11:14:22;;;;;;;13.77;10.55;;;3.30;77.60;;;;;;5051927;28;20129;-78
2023/01/24 11:16:57;;;;;;;15.60;10.88;;;3.60;77.90;;;;;;5051779;28;20045;-79
2023/01/24 11:19:32;;;;;;;16.25;11.52;;;3.30;77.70;;;;;;5052000;28;20083;-79
2023/01/24 11:22:19;;;;;;;15.73;11.30;;;3.30;77.80;;;;;;5035245;28;20102;-78
2023/01/24 11:24:46;;;;;;;16.00;10.93;;;3.30;77.80;;;;;;5051630;28;20087;-79
2023/01/24 11:27:18;;;;;;;14.43;10.45;;;3.40;77.80;;;;;;5051924;28;20033;-78
2023/01/24 11:29:44;;;;;;;16.83;11.35;;;3.30;77.50;;;;;;5035519;28;20037;-79
2023/01/24 11:32:12;;;;;;;16.10;11.15;;;3.30;77.30;;;;;;5051569;28;20083;-78
2023/01/24 11:35:05;;;;;;;14.90;10.65;;;3.50;77.40;;;;;;5035228;28;20128;-78
2023/01/24 11:37:58;;;;;;;14.63;10.20;;;3.30;77.40;;;;;;5051878;28;20040;-78
2023/01/24 11:40:52;;;;;;;16.90;12.32;;;3.30;77.40;;;;;;5035108;28;20041;-78
2023/01/24 11:43:36;;;;;;;14.75;11.13;;;3.20;77.30;;;;;;5051811;28;20542;-78
2023/01/24 11:46:22;;;;;;;16.45;12.02;;;3.30;77.50;;;;;;5051775;28;20045;-79
2023/01/24 11:49:09;;;;;;;13.98;10.30;;;3.30;77.40;;;;;;5035177;28;20095;-78
2023/01/24 11:51:50;;;;;;;14.48;11.13;;;3.30;77.40;;;;;;5051707;28;20400;-78
2023/01/24 11:54:39;;;;;;;13.80;10.63;;;3.30;77.60;;;;;;5034975;28;20045;-79
2023/01/24 11:57:13;;;;;;;17.63;10.93;;;3.30;77.70;;;;;;5051240;28;20130;-78
2023/01/24 12:00:02;;;;;;;15.40;11.45;;;3.30;77.80;;;;;;5035148;28;20041;-78
2023/01/24 12:02:43;;;;;;;15.05;11.02;;;3.30;77.60;;;;;;5053480;28;20487;-78
2023/01/24 12:05:31;;;;;;;14.80;10.82;;;3.30;77.60;;;;;;5055616;28;20392;-78
2023/01/24 12:08:06;;;;;;;14.38;10.13;;;3.30;77.50;;;;;;5055392;28;20048;-78
2023/01/24 12:10:47;;;;;;;;;;;3.30;77.60;;;;;;5038845;28;20488;-78
2023/01/24 12:13:34;;;;;;;15.85;11.00;;;3.30;77.40;;;;;;5035226;28;19917;-78
2023/01/24 12:16:20;;;;;;;15.25;11.40;;;3.30;77.60;;;;;;5035348;28;20045;-78
2023/01/24 12:19:10;;;;;;;13.57;9.93;;;3.30;77.70;;;;;;5028026;28;20045;-78
2023/01/24 12:21:36;;;;;;;14.77;11.13;;;3.30;77.60;;;;;;5035061;28;20042;-78
2023/01/24 12:24:16;;;;;;;14.10;10.75;;;3.30;77.50;;;;;;5029504;28;20041;-78
2023/01/24 12:26:47;;;;;;;15.75;11.20;;;3.30;77.50;;;;;;5055299;28;20373;-78
2023/01/24 12:29:16;;;;;;;14.30;10.77;;;3.30;77.50;;;;;;5054978;28;20040;-78
2023/01/24 12:32:03;;;;;;;17.50;12.30;;;3.60;77.70;;;;;;5055179;28;20369;-78
2023/01/24 12:34:39;;;;;;;17.55;11.85;;;3.30;77.60;;;;;;5054867;28;20056;-78
2023/01/24 12:37:31;;;;;;;16.52;12.57;;;3.30;77.70;;;;;;5054502;28;20037;-78
2023/01/24 12:40:03;;;;;;;16.75;12.25;;;3.30;77.70;;;;;;5054827;28;20041;-78
2023/01/24 12:43:09;;;;;;;16.20;11.73;;;3.30;77.70;;;;;;5037981;28;20074;-78
2023/01/24 12:45:44;;;;;;;14.30;10.88;;;3.30;77.60;;;;;;5038114;28;20048;-78
2023/01/24 12:48:09;;;;;;;;;;;3.30;77.70;;;;;;5038482;28;20599;-78
2023/01/24 12:50:41;;;;;;;16.83;11.45;;;3.30;77.50;;;;;;5055027;28;20011;-78
2023/01/24 12:53:12;;;;;;;16.55;11.68;;;3.30;77.70;;;;;;5054555;28;20403;-78
2023/01/24 12:55:54;;;;;;;16.15;11.98;;;3.40;77.80;;;;;;5037776;28;20049;-78
2023/01/24 12:58:27;;;;;;;15.93;11.48;;;3.30;77.70;;;;;;5054466;28;20041;-78
2023/01/24 13:01:12;;;;;;;15.40;10.75;;;3.30;77.80;;;;;;5054321;28;20048;-78
2023/01/24 13:04:20;;;;;;;17.58;11.38;;;3.30;77.70;;;;;;5054618;28;20087;-77
2023/01/24 13:06:58;;;;;;;16.65;11.63;;;3.30;77.60;;;;;;5054031;28;20040;-77
2023/01/24 13:09:36;;;;;;;17.25;11.45;;;3.30;77.70;;;;;;5037911;28;20044;-77
2023/01/24 13:12:04;;;;;;;16.75;11.65;;;3.30;77.80;;;;;;5054205;28;20059;-78
2023/01/24 13:14:38;;;;;;;17.55;12.35;;;3.30;77.80;;;;;;5054134;28;20041;-78
2023/01/24 13:17:12;;;;;;;17.73;13.27;;;3.40;77.90;;;;;;5054342;28;20040;-78
2023/01/24 13:19:59;;;;;;;18.23;12.85;;;3.30;77.80;;;;;;5037248;28;20694;-78
2023/01/24 13:22:43;;;;;;;18.25;12.23;;;3.30;77.70;;;;;;5054234;28;20388;-78
2023/01/24 13:25:18;;;;;;;30.77;15.20;;;3.30;77.70;;;;;;5054181;28;20045;-78
2023/01/24 13:27:49;;;;;;;;;;;3.30;77.90;;;;;;5038750;28;20052;-81
2023/01/24 13:30:30;;;;;;;19.53;13.40;;;3.30;77.60;;;;;;5054276;28;20368;-83